createdAt,value
2024-05-09T00:08:01.164Z,68.00
2024-05-09T00:10:46.258Z,68.10
2024-05-09T00:13:31.525Z,67.30
2024-05-09T00:16:16.254Z,66.70
2024-05-09T00:19:01.338Z,67.80
2024-05-09T00:21:46.416Z,69.30
2024-05-09T00:29:54.368Z,66.80
2024-05-09T00:32:39.396Z,67.30
2024-05-09T00:35:24.587Z,67.70
2024-05-09T00:38:10.279Z,67.50
2024-05-09T00:40:55.306Z,66.30
2024-05-09T00:43:40.450Z,67.30
2024-05-09T00:51:50.599Z,68.40
2024-05-09T00:54:36.054Z,68.20
2024-05-09T00:57:22.431Z,68.90
2024-05-09T01:00:22.349Z,68.00
2024-05-09T01:03:15.499Z,68.80
2024-05-09T01:06:00.771Z,70.00
2024-05-09T01:14:18.271Z,67.90
2024-05-09T01:17:03.629Z,68.50
2024-05-09T01:19:49.029Z,68.60
2024-05-09T01:22:36.140Z,69.10
2024-05-09T01:25:21.664Z,67.40
2024-05-09T01:28:06.916Z,68.70
2024-05-09T01:36:13.824Z,68.60
2024-05-09T01:38:58.799Z,69.40
2024-05-09T01:41:43.752Z,68.10
2024-05-09T01:44:28.978Z,67.70
2024-05-09T01:47:14.082Z,68.20
2024-05-09T01:49:59.250Z,67.50
2024-05-09T01:57:55.153Z,66.60
2024-05-09T02:00:42.571Z,66.10
2024-05-09T02:03:28.425Z,65.20
2024-05-09T02:06:13.391Z,65.20
2024-05-09T02:08:58.570Z,65.00
2024-05-09T02:19:36.540Z,64.30
2024-05-09T02:22:21.756Z,65.00
2024-05-09T02:25:07.113Z,63.90
2024-05-09T02:27:52.634Z,63.70
2024-05-09T02:30:41.064Z,62.60
2024-05-09T02:41:32.334Z,63.30
2024-05-09T02:44:17.341Z,62.60
2024-05-09T02:47:02.513Z,62.30
2024-05-09T02:49:47.704Z,62.30
2024-05-09T02:52:32.726Z,62.00
2024-05-09T02:58:57.669Z,62.20
2024-05-09T03:01:42.510Z,62.50
2024-05-09T03:04:27.817Z,61.60
2024-05-09T03:07:13.103Z,61.50
2024-05-09T03:09:58.252Z,61.60
2024-05-09T03:12:43.245Z,61.00
2024-05-09T03:20:51.721Z,61.10
2024-05-09T03:23:43.450Z,61.50
2024-05-09T03:26:28.715Z,60.70
2024-05-09T03:29:13.793Z,61.60
2024-05-09T03:32:02.083Z,60.90
2024-05-09T03:40:28.955Z,60.20
2024-05-09T03:43:17.617Z,60.60
2024-05-09T03:46:02.580Z,60.70
2024-05-09T03:48:47.752Z,60.60
2024-05-09T03:51:32.959Z,60.80
2024-05-09T03:54:18.258Z,60.80
2024-05-09T04:02:25.412Z,60.80
2024-05-09T04:05:10.332Z,60.50
2024-05-09T04:07:55.429Z,60.10
2024-05-09T04:10:41.473Z,60.20
2024-05-09T04:13:26.187Z,60.00
2024-05-09T04:16:11.594Z,59.90
2024-05-09T04:24:18.002Z,59.90
2024-05-09T04:27:03.749Z,59.80
2024-05-09T04:29:48.556Z,59.20
2024-05-09T04:32:33.977Z,59.40
2024-05-09T04:35:18.954Z,58.90
2024-05-09T04:38:05.099Z,58.60
2024-05-09T04:46:17.410Z,57.60
2024-05-09T04:49:02.410Z,57.40
2024-05-09T04:51:50.234Z,57.00
2024-05-09T04:54:36.637Z,56.70
2024-05-09T04:57:22.126Z,56.40
2024-05-09T05:00:14.509Z,56.50
2024-05-09T05:08:47.986Z,56.50
2024-05-09T05:11:32.890Z,56.30
2024-05-09T05:14:18.072Z,56.10
2024-05-09T05:17:03.401Z,55.80
2024-05-09T05:19:48.534Z,55.90
2024-05-09T05:22:37.217Z,55.90
2024-05-09T05:30:42.297Z,55.10
2024-05-09T05:33:27.827Z,55.10
2024-05-09T05:36:16.387Z,55.20
2024-05-09T05:39:01.560Z,55.40
2024-05-09T05:41:46.572Z,55.00
2024-05-09T05:44:32.126Z,55.30
2024-05-09T05:52:38.374Z,55.70
2024-05-09T05:55:23.179Z,55.70
2024-05-09T05:58:10.058Z,55.60
2024-05-09T06:00:54.883Z,55.50
2024-05-09T06:03:39.993Z,54.80
2024-05-09T06:06:25.617Z,55.70
2024-05-09T06:14:32.520Z,55.20
2024-05-09T06:17:17.751Z,54.60
2024-05-09T06:20:03.694Z,55.30
2024-05-09T06:22:49.447Z,55.10
2024-05-09T06:25:35.704Z,54.60
2024-05-09T06:36:44.047Z,55.00
2024-05-09T06:39:28.708Z,54.90
2024-05-09T06:42:13.853Z,54.60
2024-05-09T06:45:05.404Z,54.50
2024-05-09T06:47:50.734Z,54.00
2024-05-09T06:58:55.893Z,53.90
2024-05-09T07:01:41.159Z,53.40
2024-05-09T07:04:26.320Z,53.30
2024-05-09T07:07:11.297Z,53.20
2024-05-09T07:09:56.241Z,52.90
2024-05-09T07:12:41.267Z,52.90
2024-05-09T07:21:08.648Z,53.00
2024-05-09T07:23:53.506Z,51.60
2024-05-09T07:26:38.829Z,52.60
2024-05-09T07:29:23.779Z,52.80
2024-05-09T07:32:09.280Z,52.00
2024-05-09T07:34:54.404Z,52.20
2024-05-09T07:43:07.347Z,52.40
2024-05-09T07:45:54.791Z,52.30
2024-05-09T07:53:08.591Z,51.90
2024-05-09T07:54:34.350Z,51.90
2024-05-09T08:04:58.299Z,52.50
2024-05-09T08:07:43.556Z,52.00
2024-05-09T08:10:29.369Z,52.00
2024-05-09T08:13:15.057Z,51.90
2024-05-09T08:16:00.082Z,51.90
2024-05-09T08:18:45.983Z,52.20
2024-05-09T08:27:05.257Z,52.30
2024-05-09T08:29:49.928Z,51.80
2024-05-09T08:32:35.175Z,51.30
2024-05-09T08:35:20.179Z,51.40
2024-05-09T08:38:07.226Z,52.00
2024-05-09T08:40:52.774Z,52.10
2024-05-09T08:49:03.165Z,51.70
2024-05-09T08:51:48.283Z,52.00
2024-05-09T08:54:33.812Z,52.10
2024-05-09T08:57:21.427Z,52.40
2024-05-09T09:00:12.516Z,52.40
2024-05-09T09:11:27.059Z,52.30
2024-05-09T09:14:11.929Z,51.70
2024-05-09T09:16:56.991Z,51.60
2024-05-09T09:19:43.137Z,51.60
2024-05-09T09:22:28.048Z,52.60
2024-05-09T09:25:13.441Z,51.30
2024-05-09T09:33:21.194Z,51.50
2024-05-09T09:36:08.331Z,51.00
2024-05-09T09:38:56.051Z,51.30
2024-05-09T09:41:44.781Z,51.70
2024-05-09T09:44:32.221Z,49.90
2024-05-09T09:55:37.407Z,49.80
2024-05-09T09:58:23.275Z,50.50
2024-05-09T10:01:08.328Z,51.30
2024-05-09T10:03:53.578Z,51.30
2024-05-09T10:06:44.097Z,49.80
2024-05-09T10:17:51.076Z,49.80
2024-05-09T10:20:44.159Z,49.60
2024-05-09T10:23:31.405Z,48.80
2024-05-09T10:26:16.594Z,50.00
2024-05-09T10:29:16.399Z,48.80
2024-05-09T10:32:02.722Z,48.90
2024-05-09T10:40:31.866Z,47.80
2024-05-09T10:43:19.149Z,49.30
2024-05-09T10:46:04.590Z,49.70
2024-05-09T10:48:50.601Z,51.20
2024-05-09T10:51:36.314Z,52.30
2024-05-09T10:54:21.108Z,52.70
2024-05-09T11:02:49.448Z,44.50
2024-05-09T11:05:35.588Z,32.80
2024-05-09T11:08:22.334Z,58.60
2024-05-09T11:11:08.875Z,60.00
2024-05-09T11:13:54.186Z,61.60
2024-05-09T11:16:39.468Z,61.90
2024-05-09T11:25:01.413Z,66.90
2024-05-09T11:27:46.788Z,72.40
2024-05-09T11:30:32.550Z,73.30
2024-05-09T11:33:21.269Z,78.50
2024-05-09T11:36:07.567Z,78.40
2024-05-09T11:47:13.305Z,79.30
2024-05-09T11:49:58.931Z,88.50
2024-05-09T11:52:43.859Z,84.70
2024-05-09T11:55:28.942Z,85.00
2024-05-09T11:58:13.938Z,89.60
2024-05-09T12:09:21.780Z,88.80
2024-05-09T12:12:07.108Z,83.60
2024-05-09T12:14:51.990Z,84.40
2024-05-09T12:17:37.226Z,82.10
2024-05-09T12:20:28.753Z,79.80
2024-05-09T12:30:46.974Z,83.40
2024-05-09T12:33:32.632Z,78.80
2024-05-09T12:36:17.987Z,78.30
2024-05-09T12:39:03.038Z,79.80
2024-05-09T12:41:48.111Z,36.40
2024-05-09T12:44:33.202Z,79.00
2024-05-09T12:52:37.258Z,85.50
2024-05-09T12:55:22.046Z,80.80
2024-05-09T12:58:07.388Z,68.50
2024-05-09T13:00:52.790Z,35.60
2024-05-09T13:03:38.229Z,79.40
2024-05-09T13:06:23.601Z,76.90
2024-05-09T13:14:35.037Z,67.90
2024-05-09T13:17:21.097Z,61.00
2024-05-09T13:20:11.876Z,54.50
2024-05-09T13:23:05.598Z,54.90
2024-05-09T13:25:51.382Z,52.80
2024-05-09T13:28:36.890Z,51.90
2024-05-09T13:36:44.843Z,53.50
2024-05-09T13:39:29.880Z,59.90
2024-05-09T13:42:16.988Z,62.40
2024-05-09T13:45:02.285Z,66.00
2024-05-09T13:47:47.489Z,68.00
2024-05-09T13:50:35.724Z,67.00
2024-05-09T13:58:47.343Z,65.60
2024-05-09T14:01:32.502Z,64.60
2024-05-09T14:04:17.794Z,64.30
2024-05-09T14:07:03.298Z,62.50
2024-05-09T14:09:48.368Z,59.40
2024-05-09T14:12:34.129Z,58.50
2024-05-09T14:20:16.442Z,55.30
2024-05-09T14:23:04.625Z,53.70
2024-05-09T14:25:52.035Z,53.70
2024-05-09T14:28:37.499Z,53.90
2024-05-09T14:31:22.728Z,52.80
2024-05-09T14:34:08.132Z,51.80
2024-05-09T14:42:08.399Z,51.60
2024-05-09T14:44:53.134Z,50.50
2024-05-09T14:47:38.375Z,50.60
2024-05-09T14:50:28.218Z,50.40
2024-05-09T14:53:20.735Z,50.00
2024-05-09T14:56:06.281Z,49.20
2024-05-09T15:04:16.689Z,48.90
2024-05-09T15:07:01.924Z,48.90
2024-05-09T15:09:46.996Z,48.70
2024-05-09T15:12:32.220Z,49.30
2024-05-09T15:15:17.803Z,48.90
2024-05-09T15:26:28.362Z,48.00
2024-05-09T15:29:13.215Z,47.90
2024-05-09T15:31:58.436Z,48.70
2024-05-09T15:34:43.447Z,48.20
2024-05-09T15:37:28.624Z,48.60
2024-05-09T15:40:18.848Z,48.50
2024-05-09T15:48:33.960Z,47.80
2024-05-09T15:51:19.425Z,47.50
2024-05-09T15:54:04.983Z,47.80
2024-05-09T15:56:50.176Z,48.00
2024-05-09T15:59:35.657Z,48.00
2024-05-09T16:02:20.920Z,47.70
2024-05-09T16:09:15.948Z,48.30
2024-05-09T16:12:01.590Z,47.90
2024-05-09T16:14:46.800Z,47.70
2024-05-09T16:17:33.168Z,48.30
2024-05-09T16:20:29.888Z,48.40
2024-05-09T16:29:04.621Z,48.60
2024-05-09T16:31:50.918Z,48.50
2024-05-09T16:34:35.852Z,48.70
2024-05-09T16:37:20.848Z,48.80
2024-05-09T16:40:12.375Z,48.70
2024-05-09T16:51:26.288Z,48.80
2024-05-09T16:54:11.095Z,48.60
2024-05-09T16:56:56.230Z,48.50
2024-05-09T16:59:41.385Z,48.70
2024-05-09T17:02:31.337Z,48.90
2024-05-09T17:05:16.660Z,49.70
2024-05-09T17:13:20.390Z,48.90
2024-05-09T17:16:09.242Z,48.90
2024-05-09T17:18:54.485Z,49.10
2024-05-09T17:21:39.544Z,49.10
2024-05-09T17:24:24.486Z,49.10
2024-05-09T17:30:48.132Z,49.20
2024-05-09T17:33:33.338Z,49.60
2024-05-09T17:36:18.627Z,49.60
2024-05-09T17:39:03.510Z,49.70
2024-05-09T17:41:48.770Z,49.70
2024-05-09T17:52:26.661Z,50.00
2024-05-09T17:55:11.740Z,50.00
2024-05-09T17:57:56.823Z,50.20
2024-05-09T18:00:42.827Z,50.00
2024-05-09T18:03:27.964Z,50.30
2024-05-09T18:06:13.160Z,50.50
2024-05-09T18:14:20.614Z,51.30
2024-05-09T18:17:05.580Z,50.60
2024-05-09T18:19:50.666Z,50.50
2024-05-09T18:22:35.841Z,50.50
2024-05-09T18:25:21.023Z,50.70
2024-05-09T18:36:23.402Z,51.00
2024-05-09T18:39:08.445Z,51.30
2024-05-09T18:41:53.029Z,51.60
2024-05-09T18:44:38.292Z,51.70
2024-05-09T18:47:23.540Z,51.50
2024-05-09T18:50:14.648Z,51.60
2024-05-09T18:58:19.859Z,52.20
2024-05-09T19:01:05.558Z,52.30
2024-05-09T19:03:52.447Z,52.60
2024-05-09T19:06:38.025Z,53.30
2024-05-09T19:09:23.070Z,52.90
2024-05-09T19:12:08.323Z,53.90
2024-05-09T19:20:20.529Z,54.20
2024-05-09T19:23:13.376Z,54.90
2024-05-09T19:25:58.649Z,55.00
2024-05-09T19:28:44.109Z,54.80
2024-05-09T19:31:29.293Z,54.50
2024-05-09T19:42:37.759Z,54.80
2024-05-09T19:45:29.735Z,55.30
2024-05-09T19:48:14.928Z,56.30
2024-05-09T19:51:00.254Z,57.10
2024-05-09T19:53:45.083Z,56.60
2024-05-09T19:56:30.838Z,56.70
2024-05-09T20:04:57.340Z,57.10
2024-05-09T20:07:42.174Z,51.80
2024-05-09T20:10:32.138Z,55.50
2024-05-09T20:13:19.448Z,57.30
2024-05-09T20:16:05.855Z,57.30
2024-05-09T20:18:50.874Z,57.00
2024-05-09T20:27:23.522Z,57.20
2024-05-09T20:30:12.243Z,57.90
2024-05-09T20:33:01.183Z,57.50
2024-05-09T20:35:46.410Z,58.50
2024-05-09T20:38:31.495Z,58.40
2024-05-09T20:41:16.619Z,58.60
2024-05-09T20:49:44.980Z,58.40
2024-05-09T20:52:30.537Z,58.70
2024-05-09T20:55:16.229Z,58.80
2024-05-09T20:58:01.857Z,58.20
2024-05-09T21:00:46.964Z,59.60
2024-05-09T21:03:32.673Z,58.50
2024-05-09T21:11:26.459Z,58.90
2024-05-09T21:14:11.684Z,60.10
2024-05-09T21:16:56.670Z,60.00
2024-05-09T21:19:42.075Z,58.90
2024-05-09T21:22:26.999Z,59.10
2024-05-09T21:33:22.285Z,59.00
2024-05-09T21:36:08.974Z,59.40
2024-05-09T21:38:54.163Z,58.60
2024-05-09T21:41:39.125Z,59.90
2024-05-09T21:44:24.197Z,60.70
2024-05-09T21:47:09.755Z,60.40
2024-05-09T21:55:18.093Z,61.30
2024-05-09T21:58:03.511Z,62.10
2024-05-09T22:00:48.790Z,60.70
2024-05-09T22:03:34.164Z,61.30
2024-05-09T22:06:19.550Z,61.00
2024-05-09T22:09:05.071Z,61.30
2024-05-09T22:17:13.377Z,61.00
2024-05-09T22:19:58.071Z,62.30
2024-05-09T22:22:43.168Z,62.70
2024-05-09T22:25:30.424Z,62.80
2024-05-09T22:28:16.498Z,63.00
2024-05-09T22:36:35.034Z,62.00
2024-05-09T22:39:19.896Z,62.00
2024-05-09T22:42:05.039Z,62.60
2024-05-09T22:44:50.029Z,63.80
2024-05-09T22:47:35.130Z,63.10
2024-05-09T22:50:26.745Z,63.10
2024-05-09T22:58:38.677Z,61.90
2024-05-09T23:01:26.337Z,62.80
2024-05-09T23:04:11.686Z,62.00
2024-05-09T23:06:56.785Z,61.60
2024-05-09T23:09:45.075Z,62.20
2024-05-09T23:20:51.990Z,62.00
2024-05-09T23:23:36.824Z,62.50
2024-05-09T23:26:22.122Z,63.00
2024-05-09T23:29:07.151Z,63.10
2024-05-09T23:31:52.313Z,63.30
2024-05-09T23:42:58.940Z,63.20
2024-05-09T23:45:44.051Z,63.80
2024-05-09T23:48:28.895Z,63.50
2024-05-09T23:51:14.395Z,63.80
2024-05-09T23:53:59.096Z,62.50
2024-05-09T23:56:44.460Z,62.30
